createdAt,value
2023-01-20T00:00:34.018Z,212.07
2023-01-20T00:03:20.025Z,272.83
2023-01-20T00:06:06.084Z,261.05
2023-01-20T00:08:52.937Z,182.18
2023-01-20T00:11:39.253Z,353.52
2023-01-20T00:14:25.705Z,154.48
2023-01-20T00:17:11.776Z,156.48
2023-01-20T00:19:57.917Z,146.73
2023-01-20T00:22:43.914Z,149.88
2023-01-20T00:25:30.259Z,157.40
2023-01-20T00:28:18.054Z,135.85
2023-01-20T00:31:21.322Z,187.73
2023-01-20T00:34:07.478Z,164.60
2023-01-20T00:36:53.463Z,205.18
2023-01-20T00:39:39.769Z,201.27
2023-01-20T00:42:25.983Z,202.25
2023-01-20T00:45:12.585Z,231.02
2023-01-20T00:47:58.942Z,184.48
2023-01-20T00:50:45.062Z,468.00
2023-01-20T00:53:31.414Z,402.00
2023-01-20T00:56:17.614Z,322.88
2023-01-20T00:59:03.738Z,286.50
2023-01-20T01:01:49.865Z,259.20
2023-01-20T01:04:36.442Z,222.80
2023-01-20T01:07:22.297Z,275.08
2023-01-20T01:10:08.511Z,228.07
2023-01-20T01:12:54.853Z,148.23
2023-01-20T01:15:41.032Z,91.20
2023-01-20T01:18:27.246Z,123.45
2023-01-20T01:21:14.916Z,92.75
2023-01-20T01:24:00.944Z,119.60
2023-01-20T01:26:47.275Z,173.60
2023-01-20T01:29:33.448Z,91.40
2023-01-20T01:32:20.598Z,92.03
2023-01-20T01:35:07.075Z,107.85
2023-01-20T01:37:53.791Z,92.13
2023-01-20T01:40:39.897Z,126.32
2023-01-20T01:43:34.041Z,96.90
2023-01-20T01:46:35.950Z,134.90
2023-01-20T01:49:25.830Z,79.75
2023-01-20T01:52:11.815Z,88.20
2023-01-20T01:54:58.716Z,85.45
2023-01-20T01:57:44.934Z,104.70
2023-01-20T02:00:31.116Z,73.35
2023-01-20T02:03:17.189Z,85.60
2023-01-20T02:06:03.306Z,73.40
2023-01-20T02:08:49.671Z,82.95
2023-01-20T02:11:48.829Z,76.88
2023-01-20T02:14:46.615Z,77.32
2023-01-20T02:17:34.721Z,86.18
2023-01-20T02:20:44.081Z,78.30
2023-01-20T02:23:30.456Z,84.55
2023-01-20T02:26:31.667Z,78.75
2023-01-20T02:29:27.382Z,77.57
2023-01-20T02:32:25.483Z,80.55
2023-01-20T02:35:24.995Z,91.40
2023-01-20T02:38:26.300Z,94.60
2023-01-20T02:41:21.865Z,110.25
2023-01-20T02:44:11.001Z,100.47
2023-01-20T02:47:04.243Z,98.50
2023-01-20T02:49:59.254Z,101.38
2023-01-20T02:52:51.613Z,108.38
2023-01-20T02:55:40.542Z,87.50
2023-01-20T02:58:29.831Z,95.75
2023-01-20T03:01:25.508Z,98.88
2023-01-20T03:04:13.981Z,113.88
2023-01-20T03:07:01.115Z,132.95
2023-01-20T03:09:49.291Z,127.05
2023-01-20T03:12:45.130Z,131.18
2023-01-20T03:15:38.804Z,117.50
2023-01-20T03:21:11.480Z,122.93
2023-01-20T03:24:00.921Z,129.65
2023-01-20T03:26:47.288Z,118.57
2023-01-20T03:29:33.304Z,93.68
2023-01-20T03:32:22.824Z,89.45
2023-01-20T03:35:09.468Z,84.43
2023-01-20T03:37:56.397Z,94.70
2023-01-20T03:41:00.623Z,95.00
2023-01-20T03:43:59.874Z,94.97
2023-01-20T03:46:48.566Z,96.97
2023-01-20T03:49:37.928Z,92.07
2023-01-20T03:52:47.884Z,104.05
2023-01-20T03:55:41.830Z,98.70
2023-01-20T03:58:30.931Z,119.18
2023-01-20T04:01:19.217Z,115.60
2023-01-20T04:04:09.266Z,131.18
2023-01-20T04:06:55.557Z,133.10
2023-01-20T04:09:45.305Z,132.82
2023-01-20T04:12:31.334Z,132.07
2023-01-20T04:15:18.032Z,122.55
2023-01-20T04:18:13.995Z,124.25
2023-01-20T04:21:04.076Z,122.10
2023-01-20T04:23:59.892Z,108.57
2023-01-20T04:26:46.211Z,108.10
2023-01-20T04:29:32.495Z,109.50
2023-01-20T04:32:18.643Z,98.85
2023-01-20T04:35:04.852Z,100.75
2023-01-20T04:37:50.977Z,104.57
2023-01-20T04:40:37.045Z,95.82
2023-01-20T04:43:23.090Z,94.45
2023-01-20T04:46:09.441Z,96.97
2023-01-20T04:48:55.499Z,89.50
2023-01-20T04:51:41.863Z,81.65
2023-01-20T04:54:28.248Z,81.25
2023-01-20T04:57:14.383Z,94.45
2023-01-20T05:00:00.532Z,97.05
2023-01-20T05:02:47.359Z,101.88
2023-01-20T05:05:34.101Z,95.88
2023-01-20T05:08:20.733Z,97.25
2023-01-20T05:11:07.580Z,96.85
2023-01-20T05:13:53.642Z,98.00
2023-01-20T05:16:39.799Z,93.13
2023-01-20T05:19:25.843Z,91.82
2023-01-20T05:22:11.925Z,95.93
2023-01-20T05:24:58.439Z,99.90
2023-01-20T05:27:45.152Z,101.40
2023-01-20T05:30:31.439Z,110.50
2023-01-20T05:33:17.778Z,132.00
2023-01-20T05:36:07.783Z,137.32
2023-01-20T05:38:55.081Z,132.43
2023-01-20T05:41:41.351Z,131.70
2023-01-20T05:44:27.674Z,129.98
2023-01-20T05:47:13.787Z,120.93
2023-01-20T05:49:59.743Z,126.68
2023-01-20T05:52:47.982Z,130.98
2023-01-20T05:55:35.448Z,120.95
2023-01-20T05:58:21.730Z,124.97
2023-01-20T06:01:09.471Z,125.03
2023-01-20T06:03:55.703Z,126.45
2023-01-20T06:06:41.798Z,113.85
2023-01-20T06:09:27.932Z,110.22
2023-01-20T06:12:13.995Z,111.35
2023-01-20T06:15:00.305Z,80.20
2023-01-20T06:17:46.452Z,57.40
2023-01-20T06:20:32.667Z,53.20
2023-01-20T06:23:18.741Z,48.25
2023-01-20T06:26:06.541Z,41.75
2023-01-20T06:28:53.781Z,43.25
2023-01-20T06:31:40.269Z,38.42
2023-01-20T06:34:26.283Z,40.10
2023-01-20T06:37:12.451Z,36.92
2023-01-20T06:39:58.750Z,32.85
2023-01-20T06:42:44.960Z,36.80
2023-01-20T06:45:31.316Z,36.22
2023-01-20T06:48:17.605Z,33.97
2023-01-20T06:51:07.808Z,30.95
2023-01-20T06:53:54.180Z,31.40
2023-01-20T06:56:40.351Z,33.75
2023-01-20T06:59:26.563Z,33.88
2023-01-20T07:02:15.839Z,34.63
2023-01-20T07:05:02.738Z,37.65
2023-01-20T07:07:49.137Z,36.58
2023-01-20T07:10:35.418Z,32.25
2023-01-20T07:13:21.669Z,29.75
2023-01-20T07:16:10.664Z,33.03
2023-01-20T07:18:57.798Z,29.83
2023-01-20T07:21:43.977Z,32.85
2023-01-20T07:24:30.193Z,34.15
2023-01-20T07:27:16.416Z,31.55
2023-01-20T07:30:02.642Z,32.85
2023-01-20T07:32:48.945Z,30.00
2023-01-20T07:35:34.894Z,29.05
2023-01-20T07:38:21.042Z,29.30
2023-01-20T07:41:08.633Z,33.50
2023-01-20T07:43:55.199Z,35.60
2023-01-20T07:46:41.471Z,38.53
2023-01-20T07:49:27.829Z,36.30
2023-01-20T07:52:13.817Z,29.60
2023-01-20T07:55:00.178Z,35.35
2023-01-20T07:57:46.193Z,30.02
2023-01-20T08:00:32.361Z,32.80
2023-01-20T08:03:18.577Z,37.15
2023-01-20T08:06:05.833Z,32.42
2023-01-20T08:08:52.233Z,32.60
2023-01-20T08:11:39.419Z,36.10
2023-01-20T08:14:25.814Z,30.63
2023-01-20T08:17:12.007Z,31.60
2023-01-20T08:19:58.271Z,29.65
2023-01-20T08:22:44.386Z,30.45
2023-01-20T08:25:30.537Z,31.80
2023-01-20T08:28:16.865Z,31.08
2023-01-20T08:31:08.139Z,30.30
2023-01-20T08:33:55.586Z,28.02
2023-01-20T08:36:42.293Z,33.70
2023-01-20T08:39:28.795Z,33.05
2023-01-20T08:42:14.686Z,33.15
2023-01-20T08:45:00.976Z,27.95
2023-01-20T08:47:47.257Z,29.80
2023-01-20T08:50:33.707Z,27.05
2023-01-20T08:53:19.886Z,29.77
2023-01-20T08:56:06.194Z,26.50
2023-01-20T08:58:54.076Z,30.42
2023-01-20T09:01:42.297Z,27.80
2023-01-20T09:04:28.385Z,25.52
2023-01-20T09:07:14.509Z,23.88
2023-01-20T09:10:00.940Z,26.85
2023-01-20T09:12:47.881Z,22.90
2023-01-20T09:15:34.067Z,25.52
2023-01-20T09:18:20.359Z,21.30
2023-01-20T09:21:06.900Z,22.90
2023-01-20T09:23:53.425Z,19.50
2023-01-20T09:26:39.826Z,18.70
2023-01-20T09:29:26.096Z,19.02
2023-01-20T09:32:13.819Z,22.45
2023-01-20T09:35:00.165Z,21.45
2023-01-20T09:38:12.416Z,19.95
2023-01-20T09:41:17.636Z,16.38
2023-01-20T09:44:07.002Z,16.15
2023-01-20T09:47:21.324Z,15.65
2023-01-20T09:50:32.294Z,19.65
2023-01-20T09:53:26.156Z,13.18
2023-01-20T09:56:18.030Z,14.68
2023-01-20T09:59:13.557Z,12.38
2023-01-20T10:02:03.289Z,19.63
2023-01-20T10:04:53.467Z,14.85
2023-01-20T10:07:43.055Z,15.75
2023-01-20T10:10:29.416Z,11.57
2023-01-20T10:13:37.113Z,13.93
2023-01-20T10:16:45.590Z,14.35
2023-01-20T10:19:53.041Z,10.30
2023-01-20T10:22:49.169Z,10.52
2023-01-20T10:25:40.464Z,13.57
2023-01-20T10:28:31.959Z,12.40
2023-01-20T10:31:22.626Z,10.48
2023-01-20T10:34:12.802Z,8.60
2023-01-20T10:37:06.464Z,12.02
2023-01-20T10:39:57.847Z,10.68
2023-01-20T10:42:49.393Z,12.07
2023-01-20T10:45:55.205Z,9.68
2023-01-20T10:49:00.315Z,10.93
2023-01-20T10:52:00.089Z,10.35
2023-01-20T10:54:49.215Z,11.85
2023-01-20T10:57:35.484Z,13.90
2023-01-20T11:00:24.304Z,12.25
2023-01-20T11:03:15.044Z,10.57
2023-01-20T11:06:01.706Z,10.02
2023-01-20T11:08:49.319Z,14.13
2023-01-20T11:11:35.698Z,12.65
2023-01-20T11:14:22.062Z,11.35
2023-01-20T11:17:09.514Z,8.95
2023-01-20T11:19:57.003Z,10.23
2023-01-20T11:22:46.121Z,9.70
2023-01-20T11:25:32.910Z,12.25
2023-01-20T11:28:20.377Z,14.02
2023-01-20T11:31:06.982Z,11.25
2023-01-20T11:33:57.758Z,12.18
2023-01-20T11:36:46.152Z,8.93
2023-01-20T11:39:33.992Z,12.40
2023-01-20T11:42:25.212Z,9.85
2023-01-20T11:45:23.538Z,9.55
2023-01-20T11:48:21.766Z,11.30
2023-01-20T11:51:17.980Z,14.30
2023-01-20T11:54:08.497Z,11.05
2023-01-20T11:57:04.773Z,9.43
2023-01-20T11:59:52.112Z,12.52
2023-01-20T12:02:38.728Z,8.95
2023-01-20T12:05:44.219Z,10.48
2023-01-20T12:08:30.486Z,10.60
2023-01-20T12:15:03.089Z,9.98
2023-01-20T12:17:55.335Z,14.52
2023-01-20T12:20:56.712Z,9.48
2023-01-20T12:23:49.141Z,9.00
2023-01-20T12:26:36.345Z,8.55
2023-01-20T12:29:44.934Z,9.13
2023-01-20T12:32:33.328Z,12.10
2023-01-20T12:35:20.149Z,9.25
2023-01-20T12:38:09.878Z,12.90
2023-01-20T12:40:57.129Z,9.20
2023-01-20T12:44:06.532Z,13.10
2023-01-20T12:47:00.863Z,14.27
2023-01-20T12:50:06.169Z,13.23
2023-01-20T12:52:52.772Z,10.85
2023-01-20T12:55:42.431Z,12.77
2023-01-20T12:58:28.461Z,14.68
2023-01-20T13:01:16.896Z,14.18
2023-01-20T13:04:03.072Z,10.50
2023-01-20T13:07:05.086Z,11.63
2023-01-20T13:09:54.675Z,14.52
2023-01-20T13:12:41.297Z,10.32
2023-01-20T13:15:27.629Z,10.10
2023-01-20T13:18:24.285Z,14.77
2023-01-20T13:21:18.919Z,11.57
2023-01-20T13:24:06.480Z,10.38
2023-01-20T13:26:53.252Z,16.35
2023-01-20T13:29:52.027Z,12.77
2023-01-20T13:32:39.723Z,13.60
2023-01-20T13:35:27.596Z,16.05
2023-01-20T13:38:24.826Z,15.80
2023-01-20T13:41:11.396Z,17.02
2023-01-20T13:43:57.947Z,16.13
2023-01-20T13:46:45.608Z,14.32
2023-01-20T13:49:51.674Z,18.23
2023-01-20T13:52:53.254Z,17.80
2023-01-20T13:55:45.364Z,36.63
2023-01-20T13:58:33.510Z,169.88
2023-01-20T14:01:20.817Z,62.10
2023-01-20T14:04:15.236Z,56.95
2023-01-20T14:07:04.712Z,100.25
2023-01-20T14:10:12.822Z,49.78
2023-01-20T14:12:59.239Z,107.95
2023-01-20T14:15:49.064Z,194.43
2023-01-20T14:18:35.582Z,227.80
2023-01-20T14:21:24.375Z,197.13
2023-01-20T14:24:37.156Z,90.55
2023-01-20T14:27:29.483Z,233.93
2023-01-20T14:30:20.329Z,78.78
2023-01-20T14:33:09.223Z,213.77
2023-01-20T14:35:55.190Z,264.17
2023-01-20T14:38:56.122Z,148.07
2023-01-20T14:41:47.955Z,305.02
2023-01-20T14:44:34.702Z,306.88
2023-01-20T14:47:21.755Z,281.42
2023-01-20T14:50:07.942Z,472.23
2023-01-20T14:52:54.737Z,306.38
2023-01-20T14:55:43.395Z,607.67
2023-01-20T14:58:30.707Z,529.83
2023-01-20T15:01:26.433Z,212.13
2023-01-20T15:04:13.102Z,289.33
2023-01-20T15:06:59.597Z,82.35
2023-01-20T15:09:51.896Z,187.40
2023-01-20T15:12:53.716Z,230.00
2023-01-20T15:15:40.026Z,107.40
2023-01-20T15:18:27.299Z,227.27
2023-01-20T15:21:35.946Z,130.00
2023-01-20T15:24:22.980Z,292.52
2023-01-20T15:27:28.847Z,156.80
2023-01-20T15:30:21.191Z,222.65
2023-01-20T15:33:09.536Z,190.73
2023-01-20T15:36:00.360Z,184.40
2023-01-20T15:38:47.015Z,128.27
2023-01-20T15:41:33.120Z,95.45
2023-01-20T15:44:19.256Z,62.95
2023-01-20T15:47:26.162Z,51.15
2023-01-20T15:50:16.874Z,36.97
2023-01-20T15:53:04.474Z,36.72
2023-01-20T15:55:51.743Z,31.30
2023-01-20T15:58:38.216Z,30.23
2023-01-20T16:01:28.747Z,29.52
2023-01-20T16:04:15.530Z,33.30
2023-01-20T16:07:01.918Z,31.48
2023-01-20T16:09:48.266Z,30.92
2023-01-20T16:12:34.726Z,24.75
2023-01-20T16:15:20.823Z,29.27
2023-01-20T16:18:07.135Z,27.52
2023-01-20T16:20:53.264Z,29.08
2023-01-20T16:23:39.519Z,25.08
2023-01-20T16:26:26.635Z,25.15
2023-01-20T16:29:12.951Z,26.77
2023-01-20T16:31:59.105Z,24.17
2023-01-20T16:34:45.615Z,28.10
2023-01-20T16:37:32.023Z,32.63
2023-01-20T16:40:19.951Z,27.38
2023-01-20T16:43:06.615Z,28.23
2023-01-20T16:45:55.471Z,28.90
2023-01-20T16:48:41.956Z,28.67
2023-01-20T16:51:29.554Z,31.58
2023-01-20T16:54:16.132Z,32.78
2023-01-20T16:57:02.634Z,26.65
2023-01-20T16:59:49.136Z,30.95
2023-01-20T17:02:35.485Z,27.52
2023-01-20T17:05:25.851Z,35.40
2023-01-20T17:08:11.937Z,31.50
2023-01-20T17:10:58.493Z,34.30
2023-01-20T17:13:47.651Z,31.77
2023-01-20T17:16:33.891Z,31.08
2023-01-20T17:19:21.160Z,36.03
2023-01-20T17:22:07.716Z,35.92
2023-01-20T17:24:53.907Z,33.88
2023-01-20T17:31:25.856Z,35.35
2023-01-20T17:34:12.233Z,40.90
2023-01-20T17:36:58.524Z,33.97
2023-01-20T17:39:46.049Z,28.98
2023-01-20T17:42:35.908Z,33.50
2023-01-20T17:45:22.559Z,35.67
2023-01-20T17:48:08.896Z,31.33
2023-01-20T17:50:59.290Z,25.88
2023-01-20T17:53:45.975Z,42.47
2023-01-20T17:56:32.157Z,42.28
2023-01-20T17:59:18.282Z,41.10
2023-01-20T18:02:05.727Z,47.78
2023-01-20T18:04:51.946Z,49.60
2023-01-20T18:07:39.404Z,50.20
2023-01-20T18:10:25.781Z,48.20
2023-01-20T18:13:11.986Z,50.42
2023-01-20T18:15:58.206Z,55.28
2023-01-20T18:18:45.277Z,59.50
2023-01-20T18:21:32.832Z,60.38
2023-01-20T18:24:19.331Z,55.47
2023-01-20T18:27:05.588Z,51.10
2023-01-20T18:29:51.831Z,50.78
2023-01-20T18:32:38.741Z,54.38
2023-01-20T18:35:24.874Z,54.78
2023-01-20T18:38:11.051Z,61.75
2023-01-20T18:40:57.237Z,52.72
2023-01-20T18:43:43.663Z,55.50
2023-01-20T18:46:30.190Z,46.45
2023-01-20T18:49:17.004Z,52.55
2023-01-20T18:52:12.897Z,45.53
2023-01-20T18:54:59.047Z,44.17
2023-01-20T18:57:45.239Z,43.55
2023-01-20T19:00:31.477Z,44.45
2023-01-20T19:03:17.684Z,46.15
2023-01-20T19:06:08.283Z,40.55
2023-01-20T19:08:56.577Z,46.47
2023-01-20T19:11:43.447Z,53.85
2023-01-20T19:14:29.694Z,49.63
2023-01-20T19:17:15.873Z,59.40
2023-01-20T19:20:02.097Z,51.05
2023-01-20T19:22:48.563Z,56.20
2023-01-20T19:25:34.690Z,52.50
2023-01-20T19:28:20.792Z,58.58
2023-01-20T19:31:08.158Z,54.05
2023-01-20T19:33:54.449Z,57.38
2023-01-20T19:36:40.821Z,49.58
2023-01-20T19:39:27.135Z,53.13
2023-01-20T19:42:13.568Z,52.53
2023-01-20T19:44:59.667Z,52.97
2023-01-20T19:47:45.977Z,58.03
2023-01-20T19:50:32.442Z,47.70
2023-01-20T19:53:18.975Z,44.83
2023-01-20T19:56:06.312Z,53.63
2023-01-20T19:58:53.520Z,46.00
2023-01-20T20:01:39.921Z,58.28
2023-01-20T20:04:26.477Z,36.90
2023-01-20T20:07:13.077Z,41.85
2023-01-20T20:09:59.259Z,47.92
2023-01-20T20:12:45.752Z,41.22
2023-01-20T20:15:33.070Z,46.17
2023-01-20T20:18:19.204Z,43.45
2023-01-20T20:21:06.688Z,40.67
2023-01-20T20:23:54.050Z,43.05
2023-01-20T20:26:41.194Z,43.08
2023-01-20T20:29:28.160Z,38.50
2023-01-20T20:32:14.345Z,41.08
2023-01-20T20:35:00.524Z,39.65
2023-01-20T20:37:47.594Z,37.95
2023-01-20T20:40:34.881Z,40.65
2023-01-20T20:43:24.965Z,42.60
2023-01-20T20:46:11.104Z,39.50
2023-01-20T20:49:02.052Z,37.08
2023-01-20T20:51:48.647Z,38.90
2023-01-20T20:54:35.029Z,39.97
2023-01-20T20:57:21.067Z,39.42
2023-01-20T21:00:08.186Z,42.75
2023-01-20T21:02:55.469Z,41.17
2023-01-20T21:05:46.173Z,53.22
2023-01-20T21:08:32.386Z,43.40
2023-01-20T21:11:20.467Z,39.25
2023-01-20T21:14:07.495Z,45.53
2023-01-20T21:16:53.613Z,42.10
2023-01-20T21:19:39.796Z,48.42
2023-01-20T21:22:25.907Z,43.45
2023-01-20T21:25:11.973Z,44.55
2023-01-20T21:27:58.082Z,44.25
2023-01-20T21:30:44.300Z,41.00
2023-01-20T21:33:30.352Z,41.63
2023-01-20T21:36:16.586Z,42.38
2023-01-20T21:39:03.052Z,42.15
2023-01-20T21:41:49.254Z,52.70
2023-01-20T21:44:36.574Z,56.20
2023-01-20T21:47:22.516Z,47.55
2023-01-20T21:50:29.022Z,44.13
2023-01-20T21:53:15.642Z,47.75
2023-01-20T21:56:01.804Z,49.30
2023-01-20T21:58:47.981Z,41.20
2023-01-20T22:01:34.637Z,43.67
2023-01-20T22:04:21.157Z,48.50
2023-01-20T22:07:07.524Z,51.08
2023-01-20T22:09:55.080Z,50.10
2023-01-20T22:12:42.557Z,49.55
2023-01-20T22:15:29.898Z,45.47
2023-01-20T22:18:16.548Z,55.60
2023-01-20T22:21:03.943Z,42.15
2023-01-20T22:23:50.173Z,40.58
2023-01-20T22:26:36.651Z,37.15
2023-01-20T22:29:23.625Z,41.50
2023-01-20T22:32:10.042Z,35.53
2023-01-20T22:34:56.238Z,35.72
2023-01-20T22:37:42.569Z,42.13
2023-01-20T22:40:28.739Z,39.20
2023-01-20T22:43:15.021Z,40.42
2023-01-20T22:46:02.217Z,42.58
2023-01-20T22:48:48.339Z,40.60
2023-01-20T22:51:34.743Z,43.13
2023-01-20T22:54:21.018Z,44.55
2023-01-20T22:57:06.965Z,31.70
2023-01-20T22:59:53.127Z,39.55
2023-01-20T23:02:39.482Z,37.78
2023-01-20T23:05:25.608Z,34.58
2023-01-20T23:08:11.799Z,37.60
2023-01-20T23:11:00.349Z,34.03
2023-01-20T23:13:46.969Z,32.08
2023-01-20T23:16:33.423Z,40.17
2023-01-20T23:19:19.452Z,36.75
2023-01-20T23:22:05.674Z,37.33
2023-01-20T23:24:51.928Z,33.53
2023-01-20T23:27:38.506Z,33.10
2023-01-20T23:30:24.665Z,29.05
2023-01-20T23:33:11.013Z,30.08
2023-01-20T23:35:57.096Z,31.60
2023-01-20T23:38:43.828Z,24.63
2023-01-20T23:41:29.977Z,29.63
2023-01-20T23:44:15.892Z,29.15
2023-01-20T23:47:02.301Z,28.75
2023-01-20T23:49:48.706Z,28.02
2023-01-20T23:52:34.846Z,32.53
2023-01-20T23:55:21.050Z,27.17
2023-01-20T23:58:07.049Z,21.70
